Lexington, Virginia
Current Conditions -  °F | °C
As of 8:55 AM on Wednesday 28 Jan 2015 (Local Time) from KHSP Reporting Station
Scattered Clouds Scattered Clouds  
Wind Chill: -6°   Ceiling: Unl
Heat Index: 12°   Visibility: 10mi
Dew Point: 11°   Wind: 18mph
Humidity: 97%   Direction: 290°WNW
Pressure: 30.03"   Gusts: NA
Location:  37.79°N, 79.44°W
Report Text: KHSP 281355Z AUTO 29016KT 10SM SCT002 M11/M12 A3003 RMK AO2 T11121116
Loading
Personal Weather Stations






























Interactive Weather Map New forecast layout! Learn more

10-Day Weather Forecast

Advertisements
Track Severe Weather on mobile